Portada
METAR-TAF:

METAR-TAF

Aeroports :

Jendouba, Tunísia

latitud: 36-29N, longitud: 008-48E, altitud: 143 m

Observació

L'informe es va fer fa 40 minuts, a les 13:00 UTC
Vent 12 kt del Nord/Nord-Oest, variant entre Oest i Nord/Nord-Oest
Temperatura 36°C
Humitat 35%
Pressió 1013 hPa
Visibilitat 10 km o més
sense núvols per sota de 1500 mi sense presència de cumulonimbus.

METAR: DTTN 191300Z 34012KT 270V340 CAVOK 36/18 Q1013 SIROCCO

Hora: 14:40 (13:40 UTC)


TAF: manca

Observacions i pronòstics meteorològics de més de 4000 aeroports (METAR i TAF).

Les estacions disponibles són els punts grocs i vermells al mapa.

Posi el ratolí al punt desitjat per veure el nom de l'estació.

Feu clic per veure les observacions i els pronòstics meteorològics.

Per canviar el mapa: feu clic els botons verds amb una creu de color negre per apropar; al botó verd amb un guió per allunyar la imatge; o en les fletxes verdes per a mapes adjacents.


METAR-TAF: